Time;durP1;ratioP1;P1;durP2;ratioP2;P2;SDS_P1;SDS_P2;PMS_P1;PMS_P2;Temp;Humidity;BMP_temperature;BMP_pressure;BME280_temperature;BME280_humidity;BME280_pressure;Samples;Min_cycle;Max_cycle;Signal;HPM_P1;HPM_P2
2023/02/24 00:01:23;;;;;;;14.10;7.85;;;;;;;7.29;72.23;93913.91;5104240;28;20219;-83
2023/02/24 00:03:57;;;;;;;17.05;7.43;;;;;;;7.31;72.26;93919.72;5104261;28;20024;-82
2023/02/24 00:06:24;;;;;;;16.15;7.78;;;;;;;7.33;71.86;93901.66;5104304;28;20015;-83
2023/02/24 00:08:49;;;;;;;14.77;7.47;;;;;;;7.30;71.75;93905.63;5104249;28;20318;-83
2023/02/24 00:11:17;;;;;;;14.95;6.80;;;;;;;7.33;71.59;93905.06;5102944;28;20096;-82
2023/02/24 00:13:45;;;;;;;15.93;7.20;;;;;;;7.32;71.44;93908.78;5104039;28;20016;-82
2023/02/24 00:16:18;;;;;;;12.55;6.82;;;;;;;7.34;71.40;93898.69;5104060;28;20310;-82
2023/02/24 00:18:44;;;;;;;14.15;7.03;;;;;;;7.33;71.32;93899.78;5104005;28;20020;-82
2023/02/24 00:21:15;;;;;;;18.58;7.40;;;;;;;7.32;71.23;93894.75;5103788;28;20016;-82
2023/02/24 00:23:45;;;;;;;15.17;8.57;;;;;;;7.27;71.57;93902.81;5103882;28;20290;-82
2023/02/24 00:26:13;;;;;;;16.90;7.35;;;;;;;7.24;71.60;93906.81;5102806;28;20321;-82
2023/02/24 00:28:39;;;;;;;16.60;7.35;;;;;;;7.26;71.49;93907.31;5103952;28;20218;-82
2023/02/24 00:31:12;;;;;;;17.55;7.57;;;;;;;7.23;71.36;93899.94;5103863;28;20034;-82
2023/02/24 00:33:39;;;;;;;14.65;7.45;;;;;;;7.22;71.33;93901.00;5103858;28;20040;-83
2023/02/24 00:36:10;;;;;;;14.23;6.70;;;;;;;7.19;71.33;93894.44;5102752;28;20032;-82
2023/02/24 00:38:38;;;;;;;14.83;6.83;;;;;;;7.20;71.53;93888.03;5103892;28;20023;-82
2023/02/24 00:41:08;;;;;;;14.13;7.25;;;;;;;7.13;71.67;93889.50;5102592;28;20305;-82
2023/02/24 00:43:36;;;;;;;15.18;7.60;;;;;;;7.12;71.91;93887.91;5103731;28;20019;-81
2023/02/24 00:46:09;;;;;;;13.07;6.93;;;;;;;7.12;72.11;93886.03;5103298;28;20058;-82
2023/02/24 00:48:39;;;;;;;13.38;6.85;;;;;;;7.11;71.96;93889.00;5103523;28;20042;-82
2023/02/24 00:51:06;;;;;;;15.50;7.03;;;;;;;7.11;71.85;93886.34;5103600;28;20020;-82
2023/02/24 00:53:32;;;;;;;15.70;7.25;;;;;;;7.07;71.98;93885.38;5103313;28;20023;-82
2023/02/24 00:55:59;;;;;;;14.20;6.75;;;;;;;7.05;72.12;93879.56;5103293;28;20055;-82
2023/02/24 00:58:28;;;;;;;14.48;7.03;;;;;;;6.97;72.21;93875.72;5103181;28;20024;-83
2023/02/24 01:00:56;;;;;;;13.88;7.22;;;;;;;6.91;72.57;93875.00;5103268;28;20028;-81
2023/02/24 01:03:21;;;;;;;15.55;6.85;;;;;;;6.84;72.80;93871.94;5103247;28;20028;-81
2023/02/24 01:05:47;;;;;;;14.85;7.65;;;;;;;6.83;72.78;93878.31;5102061;28;20024;-81
2023/02/24 01:08:20;;;;;;;15.38;6.72;;;;;;;6.80;72.89;93877.03;5103460;28;20024;-81
2023/02/24 01:12:16;;;;;;;15.90;7.35;;;;;;;6.82;73.06;93884.69;5101982;28;20065;-81
2023/02/24 01:13:39;;;;;;;13.38;6.78;;;;;;;6.86;73.08;93875.09;5103009;28;20020;-82
2023/02/24 01:16:05;;;;;;;18.55;8.90;;;;;;;6.86;72.77;93872.44;5103176;28;20020;-81
2023/02/24 01:18:31;;;;;;;16.20;7.85;;;;;;;6.81;72.93;93868.00;5103183;28;20078;-81
2023/02/24 01:20:57;;;;;;;14.00;6.93;;;;;;;6.79;72.72;93870.13;5101938;28;20178;-81
2023/02/24 01:23:23;;;;;;;14.52;6.90;;;;;;;6.81;72.76;93868.00;5103014;28;20027;-82
2023/02/24 01:25:49;;;;;;;15.43;7.50;;;;;;;6.82;72.81;93868.78;5102985;28;20277;-83
2023/02/24 01:28:14;;;;;;;16.27;7.60;;;;;;;6.79;72.94;93861.41;5102965;28;20087;-82
2023/02/24 01:30:43;;;;;;;13.60;5.88;;;;;;;6.77;72.93;93860.91;5103008;28;20070;-82
2023/02/24 01:33:13;;;;;;;15.60;6.75;;;;;;;6.74;73.22;93864.94;5102883;28;20015;-82
2023/02/24 01:35:40;;;;;;;18.08;7.00;;;;;;;6.73;73.07;93854.63;5102903;28;20051;-82
2023/02/24 01:38:05;;;;;;;14.70;6.75;;;;;;;6.71;72.96;93851.47;5101836;28;20028;-82
2023/02/24 01:40:31;;;;;;;15.63;6.28;;;;;;;6.67;72.93;93853.13;5102898;28;20092;-83
2023/02/24 01:42:57;;;;;;;14.05;6.25;;;;;;;6.67;72.97;93845.19;5101619;28;20039;-81
2023/02/24 01:45:28;;;;;;;11.98;6.13;;;;;;;6.68;72.90;93854.72;5102701;28;20100;-81
2023/02/24 01:48:01;;;;;;;12.00;5.72;;;;;;;6.63;73.04;93848.41;5102798;28;20261;-81
2023/02/24 01:50:27;;;;;;;13.93;6.60;;;;;;;6.62;73.03;93859.28;5102842;28;20036;-81
2023/02/24 01:53:00;;;;;;;10.55;6.05;;;;;;;6.61;72.98;93852.41;5102888;28;20095;-81
2023/02/24 01:55:35;;;;;;;13.80;6.70;;;;;;;6.58;72.72;93848.47;5102640;28;20024;-81
2023/02/24 01:58:08;;;;;;;15.35;6.82;;;;;;;6.58;72.95;93843.19;5102857;28;20118;-82
2023/02/24 02:00:36;;;;;;;12.50;6.63;;;;;;;6.52;72.89;93852.28;5102578;28;20044;-81
2023/02/24 02:03:11;;;;;;;11.93;6.25;;;;;;;6.55;73.01;93850.91;5102600;28;20028;-81
2023/02/24 02:05:39;;;;;;;15.48;6.97;;;;;;;6.52;73.01;93849.63;5104516;28;20252;-81
2023/02/24 02:08:04;;;;;;;13.05;6.35;;;;;;;6.45;73.21;93854.47;5106609;28;20030;-82
2023/02/24 02:10:30;;;;;;;12.25;6.00;;;;;;;6.47;72.98;93841.75;5106363;28;20040;-82
2023/02/24 02:12:56;;;;;;;14.07;6.70;;;;;;;6.45;73.10;93849.19;5106475;28;20020;-81
2023/02/24 02:15:23;;;;;;;15.63;6.93;;;;;;;6.47;73.15;93844.38;5106329;28;20089;-82
2023/02/24 02:17:50;;;;;;;13.13;5.57;;;;;;;6.51;73.06;93852.56;5106158;28;20027;-81
2023/02/24 02:20:34;;;;;;;11.52;5.32;;;;;;;6.51;72.86;93857.84;5106469;28;20023;-82
2023/02/24 02:22:59;;;;;;;13.35;5.72;;;;;;;6.52;72.80;93849.63;5106374;28;20031;-82
2023/02/24 02:25:35;;;;;;;12.77;6.18;;;;;;;6.53;72.68;93853.06;5106162;28;20218;-83
2023/02/24 02:28:22;;;;;;;11.25;6.05;;;;;;;6.51;72.73;93858.63;5106271;28;20324;-82
2023/02/24 02:31:27;;;;;;;11.73;6.43;;;;;;;6.54;72.69;93857.28;5105986;28;20099;-82
2023/02/24 02:34:05;;;;;;;12.65;5.60;;;;;;;6.55;72.47;93853.56;5106079;28;20030;-83
2023/02/24 02:36:34;;;;;;;11.13;6.20;;;;;;;6.53;72.52;93850.41;5106012;28;20046;-82
2023/02/24 02:39:10;;;;;;;10.43;5.65;;;;;;;6.52;72.30;93856.78;5105986;28;20031;-82
2023/02/24 02:42:00;;;;;;;12.15;5.70;;;;;;;6.49;72.63;93850.19;5106060;28;20413;-82
2023/02/24 02:44:35;;;;;;;11.68;5.53;;;;;;;6.50;72.56;93862.38;5105934;28;20290;-82
2023/02/24 02:47:13;;;;;;;15.23;6.30;;;;;;;6.47;72.56;93859.50;5105854;28;20074;-82
2023/02/24 02:49:54;;;;;;;11.52;5.43;;;;;;;6.47;72.61;93854.97;5105717;28;20040;-82
2023/02/24 02:52:41;;;;;;;12.45;5.70;;;;;;;6.50;72.45;93843.84;5105815;28;20084;-82
2023/02/24 02:55:41;;;;;;;13.35;6.13;;;;;;;6.46;72.46;93842.84;5105834;28;20095;-81
2023/02/24 02:58:13;;;;;;;14.02;6.35;;;;;;;6.52;72.20;93844.34;5102410;28;20035;-82
2023/02/24 03:00:56;;;;;;;14.32;6.55;;;;;;;6.55;71.90;93842.97;5105637;28;20035;-82
2023/02/24 03:03:25;;;;;;;14.50;6.28;;;;;;;6.56;72.04;93837.38;5105627;28;20150;-82
2023/02/24 03:06:13;;;;;;;11.30;5.53;;;;;;;6.55;72.03;93835.78;5105575;28;20024;-82
2023/02/24 03:08:51;;;;;;;9.38;4.63;;;;;;;6.58;71.99;93829.94;5099104;28;20234;-82
2023/02/24 03:11:19;;;;;;;13.23;6.07;;;;;;;6.62;71.83;93838.88;5105719;28;20032;-82
2023/02/24 03:13:48;;;;;;;10.35;4.88;;;;;;;6.62;71.58;93846.81;5105315;28;20016;-82
2023/02/24 03:16:17;;;;;;;13.38;5.63;;;;;;;6.63;71.10;93840.47;5102951;28;20140;-82
2023/02/24 03:18:49;;;;;;;13.23;5.55;;;;;;;6.63;71.29;93845.78;5104295;28;20027;-82
2023/02/24 03:21:35;;;;;;;12.10;5.93;;;;;;;6.67;70.97;93840.66;5105099;28;20028;-82
2023/02/24 03:24:04;;;;;;;13.02;5.97;;;;;;;6.71;70.71;93848.81;5104786;28;20058;-82
2023/02/24 03:26:48;;;;;;;12.20;6.53;;;;;;;6.70;70.55;93844.63;5104883;28;20035;-82
2023/02/24 03:29:26;;;;;;;11.23;6.25;;;;;;;6.74;70.56;93848.25;5105029;28;20051;-82
2023/02/24 03:32:11;;;;;;;15.30;5.47;;;;;;;6.77;70.63;93847.66;5105054;28;20028;-82
2023/02/24 03:35:03;;;;;;;12.23;5.18;;;;;;;6.81;70.37;93841.50;5104947;28;20016;-82
2023/02/24 03:37:29;;;;;;;12.00;6.32;;;;;;;6.81;70.26;93841.50;5103694;28;20016;-82
2023/02/24 03:39:57;;;;;;;11.82;5.28;;;;;;;6.84;70.06;93850.75;5104890;28;20030;-81
2023/02/24 03:42:28;;;;;;;13.25;5.93;;;;;;;6.81;70.11;93849.44;5104727;28;20040;-81
2023/02/24 03:44:57;;;;;;;14.82;6.35;;;;;;;6.79;69.90;93842.88;5104686;28;20087;-81
2023/02/24 03:47:23;;;;;;;14.40;5.65;;;;;;;6.82;70.10;93837.00;5104405;28;20079;-81
2023/02/24 03:49:49;;;;;;;8.82;4.88;;;;;;;6.77;70.15;93850.31;5104637;28;20048;-81
2023/02/24 03:52:27;;;;;;;13.45;5.80;;;;;;;6.72;70.18;93843.25;5104660;28;20065;-82
2023/02/24 03:55:17;;;;;;;11.35;5.50;;;;;;;6.71;70.18;93838.22;5104476;28;20352;-82
2023/02/24 03:58:05;;;;;;;12.73;6.07;;;;;;;6.67;70.13;93845.19;5103336;28;20095;-82
2023/02/24 04:00:37;;;;;;;10.82;5.10;;;;;;;6.63;70.32;93842.31;5104257;28;20040;-81
2023/02/24 04:03:32;;;;;;;11.35;4.97;;;;;;;6.59;70.17;93834.19;5104782;28;20087;-81
2023/02/24 04:06:20;;;;;;;10.55;5.15;;;;;;;6.50;70.38;93833.25;5104232;28;20072;-81
2023/02/24 04:09:07;;;;;;;12.82;5.68;;;;;;;6.50;70.61;93846.47;5104188;28;20020;-80
2023/02/24 04:11:41;;;;;;;12.25;6.07;;;;;;;6.51;70.67;93847.25;5104287;28;20214;-80
2023/02/24 04:14:11;;;;;;;12.75;5.63;;;;;;;6.46;70.51;93844.69;5104496;28;20051;-81
2023/02/24 04:16:38;;;;;;;12.50;5.78;;;;;;;6.36;70.88;93840.34;5104116;28;20020;-82
2023/02/24 04:19:12;;;;;;;13.63;4.65;;;;;;;6.38;70.60;93843.47;5104144;28;20031;-81
2023/02/24 04:21:41;;;;;;;8.82;4.60;;;;;;;6.41;70.61;93848.19;5102831;28;20031;-82
2023/02/24 04:24:16;;;;;;;13.15;4.25;;;;;;;6.47;70.51;93840.97;5104278;28;20020;-82
2023/02/24 04:26:46;;;;;;;11.38;4.65;;;;;;;6.53;70.25;93837.94;5103669;28;20199;-83
2023/02/24 04:29:19;;;;;;;13.50;4.43;;;;;;;6.59;70.04;93836.00;5103804;28;20036;-81
2023/02/24 04:31:53;;;;;;;14.10;5.35;;;;;;;6.66;69.74;93835.66;5102622;28;20032;-82
2023/02/24 04:34:19;;;;;;;10.23;3.55;;;;;;;6.74;69.49;93829.72;5102731;28;20031;-83
2023/02/24 04:36:48;;;;;;;8.52;4.88;;;;;;;6.78;68.83;93815.59;5103760;28;20028;-82
2023/02/24 04:39:17;;;;;;;8.40;3.83;;;;;;;6.82;68.44;93821.88;5103916;28;20020;-82
2023/02/24 04:41:49;;;;;;;8.13;3.65;;;;;;;6.86;68.31;93816.81;5103481;28;20024;-82
2023/02/24 04:44:19;;;;;;;9.80;4.38;;;;;;;6.91;68.29;93813.28;5103470;28;20032;-82
2023/02/24 04:46:46;;;;;;;10.75;4.65;;;;;;;6.96;67.90;93816.63;5103458;28;20039;-82
2023/02/24 04:49:12;;;;;;;9.07;4.85;;;;;;;6.95;67.61;93804.44;5103626;28;20039;-82
2023/02/24 04:51:41;;;;;;;14.00;3.85;;;;;;;6.94;67.38;93804.72;5103802;28;20019;-81
2023/02/24 04:54:14;;;;;;;12.82;4.20;;;;;;;6.96;67.39;93816.63;5103252;28;20035;-82
2023/02/24 04:56:40;;;;;;;9.70;4.38;;;;;;;6.97;67.37;93812.88;5103247;28;20032;-82
2023/02/24 04:59:09;;;;;;;8.55;3.60;;;;;;;6.98;67.27;93819.78;5103512;28;20100;-83
2023/02/24 05:01:38;;;;;;;11.73;3.90;;;;;;;6.92;67.22;93805.03;5103429;28;20039;-82
2023/02/24 05:04:08;;;;;;;17.13;4.78;;;;;;;6.87;67.43;93807.75;5103575;28;20031;-82
2023/02/24 05:06:34;;;;;;;8.88;3.97;;;;;;;6.80;67.70;93812.66;5103328;28;20040;-82
2023/02/24 05:09:00;;;;;;;14.02;4.32;;;;;;;6.80;67.79;93815.31;5103153;28;20083;-82
2023/02/24 05:11:31;;;;;;;10.15;4.03;;;;;;;6.69;67.85;93821.84;5103170;28;20028;-82
2023/02/24 05:13:56;;;;;;;8.00;3.70;;;;;;;6.61;68.31;93813.50;5103229;28;20020;-81
2023/02/24 05:16:22;;;;;;;9.82;3.65;;;;;;;6.61;68.51;93821.44;5103155;28;20043;-81
2023/02/24 05:18:47;;;;;;;13.07;4.65;;;;;;;6.67;68.41;93821.34;5102969;28;20031;-82
2023/02/24 05:21:34;;;;;;;8.73;3.83;;;;;;;6.65;68.51;93821.63;5102454;28;20344;-81
2023/02/24 05:24:05;;;;;;;10.45;4.22;;;;;;;6.63;68.36;93832.53;5102869;28;20024;-82
2023/02/24 05:26:32;;;;;;;12.93;4.28;;;;;;;6.67;68.50;93824.00;5102520;28;20016;-82
2023/02/24 05:29:00;;;;;;;8.85;3.78;;;;;;;6.70;68.56;93829.50;5102326;28;20346;-81
2023/02/24 05:31:28;;;;;;;10.80;5.05;;;;;;;6.74;68.63;93821.78;5102606;28;20031;-81
2023/02/24 05:34:02;;;;;;;12.90;4.72;;;;;;;6.77;68.50;93829.13;5102432;28;20034;-81
2023/02/24 05:36:31;;;;;;;10.43;4.75;;;;;;;6.77;68.47;93824.59;5102468;28;20318;-81
2023/02/24 05:38:58;;;;;;;11.25;4.90;;;;;;;6.77;68.43;93839.72;5102504;28;20023;-82
2023/02/24 05:41:34;;;;;;;14.65;4.85;;;;;;;6.76;68.40;93838.16;5106875;28;20211;-81
2023/02/24 05:44:07;;;;;;;13.15;4.85;;;;;;;6.78;68.22;93836.00;5107022;28;20024;-81
2023/02/24 05:46:35;;;;;;;13.52;4.90;;;;;;;6.73;68.29;93838.72;5106678;28;20039;-81
2023/02/24 05:49:10;;;;;;;17.33;5.00;;;;;;;6.72;68.64;93831.88;5107073;28;20253;-81
2023/02/24 05:51:37;;;;;;;13.90;5.18;;;;;;;6.74;68.81;93837.66;5106977;28;20016;-82
2023/02/24 05:54:11;;;;;;;11.48;5.07;;;;;;;6.77;68.87;93840.50;5106980;28;20031;-82
2023/02/24 05:56:42;;;;;;;10.25;4.97;;;;;;;6.81;68.62;93836.19;5106978;28;20065;-82
2023/02/24 05:59:10;;;;;;;12.30;5.15;;;;;;;6.90;69.28;93843.47;5106673;28;20020;-82
2023/02/24 06:01:40;;;;;;;15.48;5.90;;;;;;;6.94;69.04;93829.38;5106613;28;20031;-85
2023/02/24 06:04:07;;;;;;;12.85;5.50;;;;;;;7.01;68.73;93834.31;5106792;28;20023;-81
2023/02/24 06:06:38;;;;;;;11.98;5.47;;;;;;;7.00;68.75;93838.81;5112674;28;20023;-81
2023/02/24 06:09:09;;;;;;;14.55;5.70;;;;;;;6.99;68.77;93833.81;5113526;28;20087;-84
2023/02/24 06:11:39;;;;;;;11.02;5.18;;;;;;;6.95;68.82;93838.13;5114436;28;20026;-84
2023/02/24 06:14:06;;;;;;;13.13;5.07;;;;;;;6.92;68.58;93851.94;5109730;28;20019;-81
2023/02/24 06:16:33;;;;;;;11.13;5.78;;;;;;;6.88;68.48;93857.03;5110335;28;20156;-81
2023/02/24 06:18:59;;;;;;;12.73;5.80;;;;;;;6.79;68.79;93854.25;5109909;28;20020;-81
2023/02/24 06:21:28;;;;;;;11.38;5.15;;;;;;;6.81;68.88;93851.31;5108070;28;20089;-82
2023/02/24 06:23:58;;;;;;;15.27;6.38;;;;;;;6.82;68.85;93853.69;5106241;28;20035;-81
2023/02/24 06:26:28;;;;;;;14.27;5.65;;;;;;;6.76;69.06;93859.34;5106150;28;20046;-81
2023/02/24 06:28:58;;;;;;;15.68;5.70;;;;;;;6.74;69.27;93866.81;5106111;28;20024;-82
2023/02/24 06:31:32;;;;;;;13.48;6.10;;;;;;;6.78;69.40;93865.16;5106023;28;20061;-83
2023/02/24 06:33:57;;;;;;;16.20;5.60;;;;;;;6.80;69.15;93855.06;5105952;28;20089;-83
2023/02/24 06:36:22;;;;;;;15.27;6.18;;;;;;;6.84;69.14;93858.69;5105960;28;20016;-82
2023/02/24 06:38:48;;;;;;;15.55;7.05;;;;;;;6.87;68.98;93860.75;5105875;28;20024;-81
2023/02/24 06:41:14;;;;;;;11.27;5.90;;;;;;;6.82;69.13;93858.97;5105772;28;20020;-80
2023/02/24 06:43:42;;;;;;;21.60;5.68;;;;;;;6.87;69.03;93862.63;5105918;28;20019;-83
2023/02/24 06:46:13;;;;;;;14.32;5.63;;;;;;;6.83;69.08;93863.19;5105502;28;20044;-83
2023/02/24 06:48:38;;;;;;;11.35;5.75;;;;;;;6.82;69.24;93852.91;5105687;28;20027;-83
2023/02/24 06:51:09;;;;;;;15.90;6.43;;;;;;;6.85;69.10;93847.00;5105076;28;20036;-84
2023/02/24 06:53:41;;;;;;;13.05;5.55;;;;;;;6.83;69.39;93844.63;5105768;28;20156;-83
2023/02/24 06:56:13;;;;;;;15.90;6.85;;;;;;;6.85;69.25;93854.19;5105569;28;20029;-85
2023/02/24 06:58:43;;;;;;;16.75;6.55;;;;;;;6.83;69.81;93844.63;5103627;28;20187;-83
2023/02/24 07:01:18;;;;;;;15.00;6.40;;;;;;;6.90;69.18;93840.84;5103940;28;20039;-85
2023/02/24 07:04:34;;;;;;;18.67;7.32;;;;;;;6.99;69.12;93839.09;5103663;28;20015;-84
2023/02/24 07:06:33;;;;;;;16.05;6.38;;;;;;;7.05;69.18;93837.16;5092975;28;20109;-84
2023/02/24 07:09:06;;;;;;;13.88;6.38;;;;;;;7.16;69.20;93827.94;5103695;28;20227;-84
2023/02/24 07:11:33;;;;;;;13.25;6.80;;;;;;;7.18;68.72;93829.22;5104207;28;20213;-84
2023/02/24 07:13:59;;;;;;;15.55;7.68;;;;;;;7.27;68.63;93832.00;5105129;28;20016;-84
2023/02/24 07:16:27;;;;;;;18.05;8.05;;;;;;;7.30;67.69;93826.09;5105160;28;20365;-85
2023/02/24 07:19:01;;;;;;;16.67;7.30;;;;;;;7.33;67.38;93828.19;5105435;28;20086;-85
2023/02/24 07:21:48;;;;;;;20.00;6.90;;;;;;;7.35;67.55;93827.91;5104889;28;20020;-84
2023/02/24 07:24:24;;;;;;;24.42;8.25;;;;;;;7.32;67.66;93828.47;5104866;28;20061;-84
2023/02/24 07:27:01;;;;;;;17.45;7.65;;;;;;;7.40;67.94;93831.22;5104933;28;20028;-83
2023/02/24 07:29:29;;;;;;;20.35;7.40;;;;;;;7.54;67.70;93835.75;5105170;28;20027;-78
2023/02/24 07:32:00;;;;;;;21.45;6.88;;;;;;;7.65;66.95;93826.50;5105022;28;20019;-78
2023/02/24 07:34:26;;;;;;;23.15;8.02;;;;;;;7.79;66.64;93824.63;5104724;28;20031;-78
2023/02/24 07:36:53;;;;;;;17.95;7.55;;;;;;;7.90;66.22;93824.47;5104970;28;20028;-78
2023/02/24 07:39:21;;;;;;;22.05;6.35;;;;;;;7.99;66.32;93817.38;5104755;28;20310;-76
2023/02/24 07:41:48;;;;;;;20.00;7.80;;;;;;;8.05;65.85;93818.81;5104700;28;20031;-76
2023/02/24 07:44:15;;;;;;;25.08;8.10;;;;;;;8.11;64.75;93820.28;5104573;28;20090;-77
2023/02/24 07:46:41;;;;;;;23.27;7.65;;;;;;;8.12;64.44;93829.84;5104982;28;20040;-77
2023/02/24 07:49:12;;;;;;;22.13;8.35;;;;;;;8.14;64.34;93825.03;5105064;28;20252;-78
2023/02/24 07:51:37;;;;;;;18.83;7.43;;;;;;;8.13;64.08;93834.06;5104927;28;20030;-78
2023/02/24 07:54:04;;;;;;;24.48;6.88;;;;;;;8.08;63.70;93834.19;5104784;28;20059;-77
2023/02/24 07:56:31;;;;;;;15.40;6.50;;;;;;;7.99;64.10;93825.31;5104702;28;20183;-78
2023/02/24 07:58:59;;;;;;;22.38;8.20;;;;;;;7.93;64.49;93811.38;5104618;28;20320;-78
2023/02/24 08:01:29;;;;;;;18.20;6.95;;;;;;;7.89;64.75;93804.31;5104263;28;20371;-78
2023/02/24 08:04:02;;;;;;;15.02;7.65;;;;;;;7.99;64.48;93820.03;5103883;28;20066;-78
2023/02/24 08:06:36;;;;;;;16.02;7.38;;;;;;;8.00;63.90;93811.00;5104452;28;20184;-79
2023/02/24 08:09:19;;;;;;;18.70;8.77;;;;;;;7.94;64.25;93807.66;5104522;28;20020;-78
2023/02/24 08:11:52;;;;;;;;;;;;;;;7.88;64.12;93810.72;5104827;28;20106;-79
2023/02/24 08:14:25;;;;;;;15.77;7.20;;;;;;;7.80;64.47;93802.34;5104280;28;19908;-79
2023/02/24 08:16:58;;;;;;;19.25;7.47;;;;;;;7.89;64.62;93802.44;5104145;28;20050;-78
2023/02/24 08:19:41;;;;;;;20.75;7.88;;;;;;;8.02;64.73;93808.81;5104297;28;20016;-79
2023/02/24 08:22:18;;;;;;;17.88;7.13;;;;;;;8.15;64.39;93797.38;5104307;28;20046;-79
2023/02/24 08:24:51;;;;;;;28.38;9.13;;;;;;;8.31;64.35;93797.81;5104071;28;20032;-78
2023/02/24 08:27:21;;;;;;;16.60;7.90;;;;;;;8.45;62.97;93784.53;5103921;28;20035;-79
2023/02/24 08:29:56;;;;;;;22.73;7.82;;;;;;;8.53;62.23;93802.41;5103996;28;20019;-78
2023/02/24 08:32:35;;;;;;;21.75;9.20;;;;;;;8.57;61.68;93792.75;5104132;28;20016;-79
2023/02/24 08:35:14;;;;;;;21.25;7.85;;;;;;;8.63;61.98;93794.22;5103962;28;20020;-79
2023/02/24 08:37:45;;;;;;;32.15;8.30;;;;;;;8.68;61.86;93789.84;5104103;28;20044;-78
2023/02/24 08:43:15;;;;;;;22.05;7.88;;;;;;;8.66;61.86;93798.13;5103644;28;20039;-79
2023/02/24 08:45:51;;;;;;;23.70;8.38;;;;;;;8.66;61.57;93794.69;5103592;28;20027;-77
2023/02/24 08:48:35;;;;;;;32.78;9.40;;;;;;;8.74;61.96;93786.78;5103631;28;20031;-77
2023/02/24 08:51:07;;;;;;;17.52;7.82;;;;;;;8.78;61.84;93792.28;5103619;28;20046;-77
2023/02/24 08:53:33;;;;;;;31.42;9.23;;;;;;;8.74;62.62;93796.63;5103769;28;20024;-77
2023/02/24 08:56:08;;;;;;;23.55;9.25;;;;;;;8.70;62.83;93790.34;5103351;28;20038;-77
2023/02/24 08:58:39;;;;;;;26.05;9.10;;;;;;;8.60;62.98;93791.34;5103731;28;20047;-77
2023/02/24 09:01:17;;;;;;;32.83;9.85;;;;;;;8.67;63.00;93793.59;5103649;28;20035;-77
2023/02/24 09:03:47;;;;;;;24.63;9.48;;;;;;;8.76;62.91;93791.78;5103556;28;20028;-78
2023/02/24 09:06:24;;;;;;;22.83;8.35;;;;;;;8.93;62.64;93791.88;5103775;28;20036;-77
2023/02/24 09:09:16;;;;;;;19.58;8.80;;;;;;;9.04;61.75;93789.78;5103354;28;20055;-77
2023/02/24 09:11:42;;;;;;;19.73;7.53;;;;;;;9.04;61.53;93787.91;5103432;28;20200;-78
2023/02/24 09:14:15;;;;;;;23.40;8.10;;;;;;;9.01;61.52;93785.81;5103384;28;20031;-78
2023/02/24 09:17:00;;;;;;;18.67;7.03;;;;;;;9.06;61.40;93787.59;5103161;28;20065;-77
2023/02/24 09:22:30;;;;;;;20.20;7.85;;;;;;;9.27;61.36;93779.88;5103300;28;20039;-78
2023/02/24 09:27:51;;;;;;;22.23;8.20;;;;;;;9.49;61.00;93783.56;5103128;28;20062;-77
2023/02/24 09:30:37;;;;;;;23.50;6.97;;;;;;;9.73;60.48;93791.13;5103108;28;20349;-78
2023/02/24 09:33:16;;;;;;;15.82;6.97;;;;;;;9.97;59.71;93772.09;5103445;28;20028;-78
2023/02/24 09:35:52;;;;;;;22.90;9.00;;;;;;;10.12;59.37;93779.66;5101965;28;20322;-78
2023/02/24 09:38:23;;;;;;;15.07;7.50;;;;;;;10.33;59.14;93777.19;5102941;28;20031;-78
2023/02/24 09:40:49;;;;;;;20.33;8.75;;;;;;;10.51;58.34;93769.97;5102863;28;20028;-78
2023/02/24 09:43:17;;;;;;;18.00;6.93;;;;;;;10.62;57.81;93771.25;5102998;28;20091;-78
2023/02/24 09:46:15;;;;;;;20.75;7.90;;;;;;;10.75;57.26;93768.72;5102919;28;20020;-78
2023/02/24 09:48:53;;;;;;;33.85;9.00;;;;;;;10.76;57.03;93773.72;5102933;28;20034;-78
2023/02/24 09:51:28;;;;;;;21.67;8.70;;;;;;;10.70;56.48;93771.53;5102854;28;20046;-79
2023/02/24 09:53:55;;;;;;;28.80;8.60;;;;;;;10.86;56.52;93774.50;5103098;28;20225;-78
2023/02/24 09:56:43;;;;;;;25.98;8.07;;;;;;;11.01;55.54;93766.78;5103011;28;20226;-78
2023/02/24 09:59:25;;;;;;;26.02;8.38;;;;;;;11.03;55.46;93758.44;5102755;28;20103;-78
2023/02/24 10:02:26;;;;;;;25.23;8.25;;;;;;;10.99;56.28;93758.31;5102695;28;20024;-78
2023/02/24 10:05:05;;;;;;;27.13;7.60;;;;;;;11.07;55.78;93747.94;5094385;28;20252;-78
2023/02/24 10:07:38;;;;;;;21.27;8.65;;;;;;;11.31;55.50;93748.16;5102631;28;20016;-78
2023/02/24 10:10:18;;;;;;;20.52;8.30;;;;;;;11.48;54.95;93747.31;5102790;28;20065;-79
2023/02/24 10:13:13;;;;;;;27.25;8.73;;;;;;;11.66;53.84;93737.31;5102521;28;20035;-78
2023/02/24 10:15:57;;;;;;;20.73;9.02;;;;;;;11.81;52.64;93738.69;5102754;28;20027;-79
2023/02/24 10:19:10;;;;;;;18.83;7.85;;;;;;;11.94;53.12;93716.31;5102719;28;20053;-79
2023/02/24 10:21:48;;;;;;;18.92;8.60;;;;;;;12.11;53.31;93714.63;5099798;28;20047;-78
2023/02/24 10:24:28;;;;;;;25.05;9.48;;;;;;;12.23;52.40;93712.00;5102271;28;20024;-78
2023/02/24 10:27:05;;;;;;;21.02;8.43;;;;;;;12.35;52.08;93709.41;5104520;28;20020;-78
2023/02/24 10:29:59;;;;;;;26.85;9.60;;;;;;;12.47;51.95;93699.88;5106331;28;20016;-79
2023/02/24 10:32:58;;;;;;;22.73;8.63;;;;;;;12.54;51.89;93687.56;5106221;28;20051;-78
2023/02/24 10:35:32;;;;;;;20.27;8.38;;;;;;;12.53;51.04;93687.88;5105853;28;20077;-79
2023/02/24 10:38:04;;;;;;;28.98;8.60;;;;;;;12.45;51.27;93676.91;5106256;28;20036;-81
2023/02/24 10:40:45;;;;;;;25.02;8.32;;;;;;;12.50;51.56;93673.28;5106071;28;20237;-78
2023/02/24 10:43:17;;;;;;;27.65;8.43;;;;;;;12.52;51.48;93670.28;5106003;28;20318;-78
2023/02/24 10:45:44;;;;;;;23.80;8.48;;;;;;;12.61;51.37;93673.63;5105685;28;20043;-78
2023/02/24 10:48:26;;;;;;;21.80;8.25;;;;;;;12.59;51.52;93673.97;5105913;28;20023;-78
2023/02/24 10:50:54;;;;;;;21.40;8.20;;;;;;;12.57;51.41;93652.13;5105640;28;20016;-78
2023/02/24 10:56:13;;;;;;;26.60;9.40;;;;;;;12.45;51.09;93668.91;5105834;28;20277;-84
2023/02/24 10:58:43;;;;;;;23.73;9.55;;;;;;;12.52;51.67;93671.06;5105560;28;20046;-84
2023/02/24 11:01:39;;;;;;;26.58;10.32;;;;;;;12.55;51.26;93659.69;5105510;28;20071;-84
2023/02/24 11:06:52;;;;;;;22.45;8.43;;;;;;;12.60;50.43;93646.13;5105465;28;20065;-85
2023/02/24 11:17:36;;;;;;;24.88;8.85;;;;;;;12.96;49.56;93631.25;5105490;28;20092;-85
2023/02/24 11:20:25;;;;;;;17.13;8.70;;;;;;;12.97;49.86;93627.47;5105257;28;20091;-85
2023/02/24 11:22:54;;;;;;;18.23;8.45;;;;;;;12.92;49.88;93616.97;5105305;28;20024;-85
2023/02/24 11:25:38;;;;;;;21.17;8.55;;;;;;;13.05;50.29;93621.22;5105324;28;20020;-85
2023/02/24 11:28:06;;;;;;;25.50;9.52;;;;;;;13.19;49.88;93622.81;5105153;28;20130;-85
2023/02/24 11:30:53;;;;;;;21.73;8.55;;;;;;;13.33;49.37;93609.91;5105170;28;20024;-87
2023/02/24 11:33:42;;;;;;;19.25;7.65;;;;;;;13.47;48.84;93606.84;5105038;28;20048;-83
2023/02/24 11:36:26;;;;;;;25.25;8.02;;;;;;;13.59;49.03;93608.72;5104588;28;20024;-83
2023/02/24 11:39:14;;;;;;;19.85;7.70;;;;;;;13.79;49.04;93598.97;5104392;28;20074;-84
2023/02/24 11:41:49;;;;;;;24.38;8.63;;;;;;;13.97;48.01;93586.88;5099111;28;20036;-86
2023/02/24 11:44:24;;;;;;;20.88;8.93;;;;;;;14.12;47.77;93580.00;5104548;28;20337;-87
2023/02/24 11:46:58;;;;;;;30.95;10.35;;;;;;;14.25;47.24;93578.81;5104478;28;20055;-87
2023/02/24 11:49:34;;;;;;;23.10;10.95;;;;;;;14.40;47.22;93579.19;5103481;28;20020;-87
2023/02/24 11:52:03;;;;;;;25.80;8.77;;;;;;;14.41;46.25;93568.13;5104570;28;20220;-87
2023/02/24 11:54:38;;;;;;;24.77;8.98;;;;;;;14.46;46.52;93559.06;5105321;28;20096;-83
2023/02/24 11:57:05;;;;;;;24.70;9.48;;;;;;;14.48;46.45;93556.81;5105085;28;20034;-83
2023/02/24 11:59:47;;;;;;;29.40;9.88;;;;;;;14.54;46.70;93541.25;5104680;28;20091;-84
2023/02/24 12:02:32;;;;;;;20.02;8.60;;;;;;;14.68;46.00;93548.91;5104636;28;20279;-84
2023/02/24 12:05:18;;;;;;;21.40;8.35;;;;;;;14.64;45.03;93538.84;5104474;28;20032;-82
2023/02/24 12:07:49;;;;;;;17.05;8.70;;;;;;;14.37;45.94;93536.97;5103813;28;20032;-81
2023/02/24 12:10:20;;;;;;;27.35;10.90;;;;;;;14.35;46.77;93531.97;5104431;28;20024;-81
2023/02/24 12:12:49;;;;;;;22.15;8.38;;;;;;;14.49;47.43;93534.25;5104188;28;20091;-80
2023/02/24 12:15:24;;;;;;;21.23;10.02;;;;;;;14.70;46.68;93522.50;5104149;28;20103;-81
2023/02/24 12:18:26;;;;;;;20.17;8.88;;;;;;;14.98;45.99;93525.06;5102941;28;20020;-82
2023/02/24 12:20:58;;;;;;;19.67;9.40;;;;;;;15.15;45.52;93500.53;5104093;28;20107;-82
2023/02/24 12:23:33;;;;;;;17.58;8.50;;;;;;;15.30;45.12;93511.59;5102766;28;20031;-81